ヘルシンキ/ヴァンター の空港の天気 - METARとTAF

ヘルシンキ・ヴァンター国際空港 ( EFHK / HEL ) - フィンランド ヴァンター
飛行場実況気象(Metar)
観測時間10/15 20:20 EEST (10/15 17:20 UTC)
風向・風速東 4m/s
視程10km以上
天気現象弱い雨
なし
気温5℃
湿度81%
気圧1021hPa
METAREFHK 151720Z 08007KT 9999 -RA NSC 05/02 Q1021 NOSIG
過去の天気等 Google飛行場航空写真 Wunderground天気予報

過去48時間のMETAR

飛行場予報(TAF)
発表時間: 10/15 17:28 EEST (10/15 14:28 UTC)
予報対象時間: 15日18時 EEST ~ 16日18時 EEST
風向・風速東 3m/s
視程10km以上
少しの雲 雲底高度 610m
15日21時 EEST ~ 16日3時 EEST に 確率 30% で一時的に
視程7000m
天気現象弱い雨
全天の8割程度の雲 雲底高度 430m
16日3時 EEST ~ 16日5時 EEST に徐々に
全天の8割程度の雲 雲底高度 240m
16日5時 EEST ~ 16日18時 EEST に一時的に
視程4000m
天気現象もや
全天の8割程度の雲 雲底高度 120m
TAF EFHK 151428Z 1515/1615 08006KT 9999 FEW020
PROB30 TEMPO 1518/1524 7000 -RA BKN014
BECMG 1600/1602 BKN008
TEMPO 1602/1615 4000 BR BKN004